Time;durP1;ratioP1;P1;durP2;ratioP2;P2;SDS_P1;SDS_P2;PMS_P1;PMS_P2;Temp;Humidity;BMP_temperature;BMP_pressure;BME280_temperature;BME280_humidity;BME280_pressure;Samples;Min_cycle;Max_cycle;Signal;HPM_P1;HPM_P2
2022/11/01 00:01:34;;;;;;;;;;;;;;;;;;5071315;28;20560;-74
2022/11/01 00:04:00;;;;;;;0.32;0.32;;;;;;;;;;5068626;28;19931;-74
2022/11/01 00:06:26;;;;;;;0.60;0.60;;;;;;;;;;5066336;28;20909;-76
2022/11/01 00:08:52;;;;;;;1.55;1.42;;;;;;;;;;5074289;28;20036;-75
2022/11/01 00:11:19;;;;;;;0.30;0.30;;;;;;;;;;5052137;28;20045;-78
2022/11/01 00:13:46;;;;;;;0.63;0.63;;;;;;;;;;5050078;28;20170;-76
2022/11/01 00:16:12;;;;;;;0.40;0.40;;;;;;;;;;5036566;28;20261;-77
2022/11/01 00:18:38;;;;;;;0.60;0.60;;;;;;;;;;5064376;28;20044;-76
2022/11/01 00:21:04;;;;;;;0.93;0.93;;;;;;;;;;5063024;28;20083;-76
2022/11/01 00:23:30;;;;;;;0.30;0.30;;;;;;;;;;5063903;28;20040;-77
2022/11/01 00:25:56;;;;;;;;;;;;;;;;;;5052348;28;20040;-78
2022/11/01 00:28:22;;;;;;;0.75;0.75;;;;;;;;;;5068853;28;19920;-76
2022/11/01 00:30:51;;;;;;;0.63;0.45;;;;;;;;;;5067675;28;21635;-77
2022/11/01 00:33:17;;;;;;;1.33;0.88;;;;;;;;;;5067530;28;20068;-78
2022/11/01 00:35:45;;;;;;;3.85;2.05;;;;;;;;;;5067120;28;20079;-77
2022/11/01 00:38:12;;;;;;;0.50;0.50;;;;;;;;;;5065682;28;20066;-77
2022/11/01 00:40:38;;;;;;;0.88;0.88;;;;;;;;;;5068912;28;20914;-77
2022/11/01 00:43:04;;;;;;;;;;;;;;;;;;5100023;27;20044;-76
2022/11/01 00:45:30;;;;;;;1.00;1.00;;;;;;;;;;5048236;28;20277;-75
2022/11/01 00:47:58;;;;;;;1.05;1.05;;;;;;;;;;5071057;28;20037;-75
2022/11/01 00:50:24;;;;;;;1.23;1.15;;;;;;;;;;5068061;28;20037;-75
2022/11/01 00:52:50;;;;;;;;;;;;;;;;;;5066999;28;20514;-75
2022/11/01 00:55:16;;;;;;;0.40;0.40;;;;;;;;;;5079090;28;19962;-75
2022/11/01 00:57:43;;;;;;;0.82;0.82;;;;;;;;;;5096962;28;20481;-76
2022/11/01 01:00:10;;;;;;;0.40;0.40;;;;;;;;;;5072770;28;20031;-76
2022/11/01 01:02:36;;;;;;;0.68;0.60;;;;;;;;;;5098493;28;20040;-74
2022/11/01 01:05:02;;;;;;;;;;;;;;;;;;5078171;28;20051;-75
2022/11/01 01:07:28;;;;;;;1.38;1.27;;;;;;;;;;5095430;28;19920;-75
2022/11/01 01:09:54;;;;;;;0.70;0.70;;;;;;;;;;5075782;28;20135;-75
2022/11/01 01:12:21;;;;;;;1.13;1.13;;;;;;;;;;5078607;28;20055;-75
2022/11/01 01:14:47;;;;;;;0.40;0.40;;;;;;;;;;5076353;28;20043;-75
2022/11/01 01:17:13;;;;;;;;;;;;;;;;;;5080879;28;20115;-75
2022/11/01 01:19:39;;;;;;;1.42;1.27;;;;;;;;;;5078093;28;20039;-75
2022/11/01 01:22:05;;;;;;;0.65;0.65;;;;;;;;;;5074907;28;20050;-75
2022/11/01 01:24:32;;;;;;;0.50;0.50;;;;;;;;;;5093376;28;20389;-76
2022/11/01 01:26:58;;;;;;;1.30;1.23;;;;;;;;;;5076027;28;20065;-74
2022/11/01 01:29:24;;;;;;;;;;;;;;;;;;5092416;28;20091;-75
2022/11/01 01:31:50;;;;;;;0.38;0.38;;;;;;;;;;5076480;28;20358;-76
2022/11/01 01:34:17;;;;;;;0.65;0.60;;;;;;;;;;5096685;28;20035;-75
2022/11/01 01:36:43;;;;;;;0.82;0.82;;;;;;;;;;5077706;28;20036;-74
2022/11/01 01:39:09;;;;;;;;;;;;;;;;;;5062959;28;20032;-74
2022/11/01 01:44:49;;;;;;;0.73;0.73;;;;;;;;;;5074344;28;20042;-76
2022/11/01 01:47:18;;;;;;;0.50;0.50;;;;;;;;;;5083100;27;20043;-78
2022/11/01 01:49:45;;;;;;;0.68;0.65;;;;;;;;;;5076368;28;20066;-76
2022/11/01 01:52:11;;;;;;;0.77;0.77;;;;;;;;;;5076968;28;20059;-75
2022/11/01 01:54:37;;;;;;;;;;;;;;;;;;5095058;28;20071;-76
2022/11/01 01:57:04;;;;;;;0.43;0.40;;;;;;;;;;5076530;28;19919;-75
2022/11/01 01:59:30;;;;;;;0.50;0.50;;;;;;;;;;5091068;28;20043;-77
2022/11/01 02:01:59;;;;;;;2.58;0.82;;;;;;;;;;5076427;28;20071;-79
2022/11/01 02:04:25;;;;;;;;;;;;;;;;;;5077325;28;20051;-75
2022/11/01 02:06:51;;;;;;;0.50;0.50;;;;;;;;;;5090357;28;19920;-75
2022/11/01 02:09:17;;;;;;;;;;;;;;;;;;5075411;28;20047;-77
2022/11/01 02:11:44;;;;;;;0.65;0.65;;;;;;;;;;5065093;28;19934;-75
2022/11/01 02:14:09;;;;;;;;;;;;;;;;;;5074881;28;20100;-75
2022/11/01 02:16:35;;;;;;;0.30;0.30;;;;;;;;;;5076602;28;20476;-76
2022/11/01 02:19:05;;;;;;;0.38;0.38;;;;;;;;;;5094766;28;21867;-75
2022/11/01 02:22:09;;;;;;;0.43;0.43;;;;;;;;;;5073877;28;20085;-76
2022/11/01 02:24:42;;;;;;;0.40;0.40;;;;;;;;;;5045834;28;20178;-76
2022/11/01 02:27:11;;;;;;;4.28;1.48;;;;;;;;;;5022613;28;20510;-76
2022/11/01 02:29:40;;;;;;;0.93;0.88;;;;;;;;;;5053219;28;20708;-76
2022/11/01 02:32:15;;;;;;;0.40;0.40;;;;;;;;;;5091720;28;20132;-76
2022/11/01 02:35:00;;;;;;;0.40;0.40;;;;;;;;;;5071592;28;20031;-76
2022/11/01 02:37:34;;;;;;;0.50;0.50;;;;;;;;;;5074096;28;20039;-76
2022/11/01 02:40:05;;;;;;;0.30;0.30;;;;;;;;;;5073172;28;20043;-75
2022/11/01 02:42:33;;;;;;;0.43;0.43;;;;;;;;;;5073380;28;20054;-75
2022/11/01 02:45:05;;;;;;;0.98;0.70;;;;;;;;;;5063289;28;20047;-75
2022/11/01 02:47:31;;;;;;;0.95;0.95;;;;;;;;;;5073437;28;20040;-75
2022/11/01 02:50:00;;;;;;;0.40;0.40;;;;;;;;;;5071626;28;20128;-76
2022/11/01 02:52:27;;;;;;;1.00;1.00;;;;;;;;;;5075193;28;20044;-75
2022/11/01 02:54:57;;;;;;;0.43;0.43;;;;;;;;;;5074208;28;20058;-74
2022/11/01 02:57:34;;;;;;;1.38;1.27;;;;;;;;;;5073961;28;20080;-75
2022/11/01 03:00:03;;;;;;;0.75;0.68;;;;;;;;;;5074517;28;20047;-77
2022/11/01 03:02:41;;;;;;;0.30;0.30;;;;;;;;;;5091232;28;20460;-75
2022/11/01 03:05:12;;;;;;;0.50;0.50;;;;;;;;;;5072048;28;20717;-74
2022/11/01 03:07:39;;;;;;;0.60;0.60;;;;;;;;;;5099019;28;20043;-73
2022/11/01 03:10:05;;;;;;;0.47;0.47;;;;;;;;;;5097605;28;20043;-74
2022/11/01 03:12:33;;;;;;;0.40;0.40;;;;;;;;;;5079709;28;20714;-74
2022/11/01 03:15:19;;;;;;;0.50;0.50;;;;;;;;;;5076865;28;20039;-75
2022/11/01 03:17:58;;;;;;;0.85;0.75;;;;;;;;;;5074491;28;20374;-76
2022/11/01 03:20:24;;;;;;;0.65;0.65;;;;;;;;;;5087123;28;20139;-75
2022/11/01 03:22:54;;;;;;;0.40;0.40;;;;;;;;;;5074663;28;20054;-75
2022/11/01 03:25:38;;;;;;;0.40;0.40;;;;;;;;;;5075005;28;20090;-74
2022/11/01 03:28:12;;;;;;;0.40;0.40;;;;;;;;;;5073901;28;20060;-74
2022/11/01 03:30:43;;;;;;;0.50;0.50;;;;;;;;;;5073820;28;20040;-75
2022/11/01 03:33:11;;;;;;;0.30;0.30;;;;;;;;;;5074117;28;20097;-75
2022/11/01 03:35:38;;;;;;;0.43;0.43;;;;;;;;;;5069102;28;20443;-76
2022/11/01 03:38:06;;;;;;;0.47;0.47;;;;;;;;;;5090526;28;21446;-76
2022/11/01 03:40:34;;;;;;;0.82;0.82;;;;;;;;;;5092505;28;20579;-74
2022/11/01 03:43:08;;;;;;;0.40;0.40;;;;;;;;;;5055263;28;20492;-75
2022/11/01 03:45:37;;;;;;;0.22;0.22;;;;;;;;;;5070856;28;20042;-75
2022/11/01 03:48:04;;;;;;;1.27;1.23;;;;;;;;;;5074115;28;20044;-75
2022/11/01 03:50:30;;;;;;;0.50;0.50;;;;;;;;;;5087840;28;20092;-76
2022/11/01 03:52:57;;;;;;;0.32;0.32;;;;;;;;;;5073244;28;20051;-75
2022/11/01 03:55:23;;;;;;;0.85;0.47;;;;;;;;;;5079812;28;20059;-75
2022/11/01 03:57:49;;;;;;;0.32;0.32;;;;;;;;;;5092171;28;20480;-75
2022/11/01 04:00:17;;;;;;;1.17;1.17;;;;;;;;;;5077787;28;20040;-75
2022/11/01 04:02:44;;;;;;;0.40;0.40;;;;;;;;;;5073172;28;20084;-74
2022/11/01 04:05:11;;;;;;;0.40;0.40;;;;;;;;;;5070945;28;20058;-75
2022/11/01 04:07:38;;;;;;;0.63;0.63;;;;;;;;;;5069548;28;20101;-75
2022/11/01 04:10:05;;;;;;;0.75;0.60;;;;;;;;;;5091337;28;20071;-74
2022/11/01 04:12:31;;;;;;;1.27;1.20;;;;;;;;;;5073780;28;20047;-75
2022/11/01 04:20:32;;;;;;;1.10;1.02;;;;;;;;;;5078206;28;20063;-76
2022/11/01 04:22:59;;;;;;;0.50;0.50;;;;;;;;;;5088648;28;20516;-75
2022/11/01 04:25:25;;;;;;;0.47;0.47;;;;;;;;;;5090900;28;20047;-76
2022/11/01 04:27:51;;;;;;;0.50;0.50;;;;;;;;;;5072873;28;20055;-76
2022/11/01 04:30:17;;;;;;;0.40;0.40;;;;;;;;;;5078119;28;20040;-75
2022/11/01 04:32:43;;;;;;;;;;;;;;;;;;5083106;28;20109;-75
2022/11/01 04:35:13;;;;;;;1.58;1.45;;;;;;;;;;5079606;28;19924;-74
2022/11/01 04:37:39;;;;;;;0.68;0.68;;;;;;;;;;5096867;28;20048;-75
2022/11/01 04:40:06;;;;;;;0.63;0.63;;;;;;;;;;5076111;28;20042;-75
2022/11/01 04:42:35;;;;;;;0.57;0.50;;;;;;;;;;5097435;28;20032;-76
2022/11/01 04:45:02;;;;;;;0.93;0.75;;;;;;;;;;5060303;28;20138;-75
2022/11/01 04:47:28;;;;;;;1.95;1.15;;;;;;;;;;5075107;28;20036;-77
2022/11/01 04:49:54;;;;;;;0.75;0.65;;;;;;;;;;5077504;28;20083;-76
2022/11/01 04:52:20;;;;;;;0.95;0.95;;;;;;;;;;5059802;28;21162;-78
2022/11/01 04:54:46;;;;;;;;;;;;;;;;;;5076499;28;20055;-75
2022/11/01 04:57:21;;;;;;;0.95;0.95;;;;;;;;;;5108579;27;20012;-75
2022/11/01 04:59:56;;;;;;;0.55;0.55;;;;;;;;;;5073543;28;20071;-75
2022/11/01 05:02:23;;;;;;;0.90;0.90;;;;;;;;;;5079566;28;20069;-75
2022/11/01 05:04:50;;;;;;;0.38;0.38;;;;;;;;;;5077008;28;20043;-76
2022/11/01 05:07:16;;;;;;;3.95;1.55;;;;;;;;;;5062306;28;20071;-76
2022/11/01 05:09:42;;;;;;;1.30;0.93;;;;;;;;;;5097436;28;20047;-77
2022/11/01 05:12:08;;;;;;;;;;;;;;;;;;5096636;28;20031;-76
2022/11/01 05:14:34;;;;;;;0.40;0.40;;;;;;;;;;5077241;28;20380;-75
2022/11/01 05:17:00;;;;;;;;;;;;;;;;;;5092227;28;20038;-75
2022/11/01 05:19:26;;;;;;;1.50;0.50;;;14.50;99.90;;;;;;5078669;28;20373;-74
2022/11/01 05:21:52;;;;;;;1.13;1.05;;;14.50;99.90;;;;;;5078724;28;20106;-76
2022/11/01 05:24:17;;;;;;;0.63;0.63;;;14.50;99.90;;;;;;5059322;28;20054;-76
2022/11/01 05:26:43;;;;;;;;;;;14.50;99.90;;;;;;5079669;28;20075;-74
2022/11/01 05:29:09;;;;;;;0.88;0.88;;;14.60;99.90;;;;;;5110310;27;20289;-74
2022/11/01 05:31:37;;;;;;;1.00;1.00;;;14.60;99.90;;;;;;5082335;28;20326;-74
2022/11/01 05:34:03;;;;;;;0.50;0.50;;;14.70;99.90;;;;;;5095181;28;20126;-76
2022/11/01 05:36:29;;;;;;;0.30;0.30;;;14.70;99.90;;;;;;5075686;28;20038;-75
2022/11/01 05:38:56;;;;;;;1.55;1.52;;;14.80;99.90;;;;;;5094921;28;20044;-75
2022/11/01 05:41:22;;;;;;;0.63;0.63;;;14.80;99.90;;;;;;5078676;28;20032;-75
2022/11/01 05:43:48;;;;;;;0.40;0.40;;;14.80;99.90;;;;;;5062853;28;20032;-74
2022/11/01 05:46:14;;;;;;;0.40;0.40;;;14.90;99.90;;;;;;5077806;28;20044;-75
2022/11/01 05:48:40;;;;;;;1.25;1.15;;;15.00;99.90;;;;;;5111037;27;20437;-75
2022/11/01 05:51:07;;;;;;;0.40;0.40;;;15.10;99.90;;;;;;5077196;28;20123;-75
2022/11/01 05:53:33;;;;;;;0.40;0.40;;;15.00;99.90;;;;;;5077818;28;20048;-77
2022/11/01 05:55:59;;;;;;;0.43;0.43;;;15.00;99.90;;;;;;5084573;28;20097;-77
2022/11/01 05:58:25;;;;;;;0.32;0.32;;;15.00;99.90;;;;;;5062545;28;20059;-74
2022/11/01 06:01:00;;;;;;;0.40;0.40;;;15.00;99.90;;;;;;5075714;28;20649;-76
2022/11/01 06:03:26;;;;;;;0.75;0.75;;;14.90;99.90;;;;;;5072127;28;20092;-76
2022/11/01 06:05:51;;;;;;;0.40;0.40;;;14.80;99.90;;;;;;5087439;28;20063;-75
2022/11/01 06:08:17;;;;;;;0.30;0.30;;;14.70;99.90;;;;;;5081211;28;20031;-73
2022/11/01 06:10:43;;;;;;;0.20;0.20;;;14.70;99.90;;;;;;5092620;28;20492;-74
2022/11/01 06:13:09;;;;;;;0.30;0.30;;;14.60;99.90;;;;;;5078734;28;20028;-75
2022/11/01 06:15:35;;;;;;;0.30;0.30;;;14.60;99.90;;;;;;5092394;28;20093;-76
2022/11/01 06:18:01;;;;;;;0.30;0.30;;;14.50;99.90;;;;;;5077795;28;20051;-75
2022/11/01 06:20:28;;;;;;;1.05;1.05;;;14.40;99.90;;;;;;5090970;28;20046;-77
2022/11/01 06:22:55;;;;;;;0.40;0.40;;;14.30;99.90;;;;;;5074560;28;20047;-73
2022/11/01 06:25:21;;;;;;;0.95;0.88;;;14.20;99.90;;;;;;5075698;28;20540;-75
2022/11/01 06:27:46;;;;;;;;;;;14.10;99.90;;;;;;5077192;28;20127;-75
2022/11/01 06:30:12;;;;;;;0.30;0.30;;;14.00;99.90;;;;;;5074957;28;19965;-74
2022/11/01 06:32:38;;;;;;;0.30;0.30;;;13.90;99.90;;;;;;5094248;28;20139;-74
2022/11/01 06:35:04;;;;;;;0.40;0.40;;;13.80;99.90;;;;;;5110654;27;20031;-76
2022/11/01 06:37:29;;;;;;;0.47;0.47;;;13.80;99.90;;;;;;5092327;28;20035;-73
2022/11/01 06:39:55;;;;;;;0.88;0.85;;;13.70;99.90;;;;;;5075739;28;20448;-76
2022/11/01 06:42:21;;;;;;;0.22;0.22;;;13.60;99.90;;;;;;5078870;28;20080;-76
2022/11/01 06:44:47;;;;;;;0.45;0.43;;;13.60;99.90;;;;;;5083486;28;20070;-74
2022/11/01 06:47:12;;;;;;;1.98;0.95;;;13.60;99.90;;;;;;5099442;28;20035;-76
2022/11/01 06:49:38;;;;;;;0.30;0.30;;;13.50;99.90;;;;;;5076408;28;20048;-74
2022/11/01 06:52:04;;;;;;;1.30;1.20;;;13.50;99.90;;;;;;5077783;28;20043;-77
2022/11/01 06:54:31;;;;;;;0.30;0.30;;;13.50;99.90;;;;;;5075448;28;20180;-76
2022/11/01 06:56:56;;;;;;;0.35;0.35;;;13.50;99.90;;;;;;5070915;28;20131;-75
2022/11/01 06:59:22;;;;;;;0.38;0.38;;;13.40;99.90;;;;;;5095277;28;20142;-76
2022/11/01 07:01:48;;;;;;;0.40;0.40;;;13.30;99.90;;;;;;5063841;28;20096;-76
2022/11/01 07:04:14;;;;;;;0.30;0.30;;;13.30;99.90;;;;;;5068500;28;20048;-75
2022/11/01 07:06:40;;;;;;;5.05;0.73;;;13.30;99.90;;;;;;5065253;28;20043;-74
2022/11/01 07:09:05;;;;;;;0.30;0.30;;;13.30;99.90;;;;;;5077003;28;20519;-75
2022/11/01 07:11:32;;;;;;;0.50;0.50;;;13.30;99.90;;;;;;5060385;28;20154;-77
2022/11/01 07:13:58;;;;;;;0.40;0.40;;;13.30;99.90;;;;;;5050285;28;20048;-75
2022/11/01 07:16:24;;;;;;;1.27;0.93;;;13.30;99.90;;;;;;5088195;28;20036;-77
2022/11/01 07:18:50;;;;;;;0.30;0.30;;;13.30;99.90;;;;;;5074140;28;20443;-75
2022/11/01 07:21:16;;;;;;;0.30;0.30;;;13.30;99.90;;;;;;5073585;28;20058;-75
2022/11/01 07:23:42;;;;;;;0.65;0.65;;;13.20;99.90;;;;;;5074040;28;20048;-76
2022/11/01 07:26:13;;;;;;;0.30;0.30;;;13.20;99.90;;;;;;5106163;27;20078;-79
2022/11/01 07:28:39;;;;;;;4.22;0.70;;;13.30;99.90;;;;;;5073584;28;20135;-79
2022/11/01 07:31:05;;;;;;;0.30;0.30;;;13.30;99.90;;;;;;5080001;28;20039;-78
2022/11/01 07:33:31;;;;;;;0.40;0.40;;;13.40;99.90;;;;;;5075909;28;20050;-75
2022/11/01 07:35:56;;;;;;;0.40;0.40;;;13.50;99.90;;;;;;5077618;28;20047;-76
2022/11/01 07:38:22;;;;;;;0.35;0.35;;;13.60;99.90;;;;;;5110390;27;20042;-78
2022/11/01 07:40:49;;;;;;;0.30;0.30;;;13.60;99.90;;;;;;5059891;28;21103;-78
2022/11/01 07:43:16;;;;;;;0.30;0.30;;;13.60;99.90;;;;;;5071615;28;20086;-80
2022/11/01 07:45:42;;;;;;;0.40;0.40;;;13.60;99.90;;;;;;5074806;28;20362;-79
2022/11/01 07:48:11;;;;;;;0.30;0.30;;;13.60;99.90;;;;;;5094136;28;20059;-77
2022/11/01 07:50:39;;;;;;;0.43;0.43;;;13.60;99.90;;;;;;5071535;28;20096;-79
2022/11/01 07:53:17;;;;;;;0.43;0.43;;;13.50;99.90;;;;;;5075395;28;20047;-77
2022/11/01 07:55:43;;;;;;;0.30;0.30;;;13.60;99.90;;;;;;5090475;28;20182;-74
2022/11/01 07:58:11;;;;;;;0.30;0.30;;;13.60;99.90;;;;;;5092567;28;20036;-73
2022/11/01 08:00:38;;;;;;;3.00;1.00;;;13.70;99.90;;;;;;5054520;28;20558;-81
2022/11/01 08:03:10;;;;;;;0.40;0.40;;;13.50;99.90;;;;;;5061609;28;20075;-81
2022/11/01 08:05:36;;;;;;;0.30;0.30;;;14.00;99.90;;;;;;5080999;28;20101;-83
2022/11/01 08:08:02;;;;;;;0.30;0.30;;;14.10;99.90;;;;;;5082790;28;20886;-84
2022/11/01 08:10:28;;;;;;;3.10;1.25;;;14.10;99.90;;;;;;5080507;28;20054;-80
2022/11/01 08:13:16;;;;;;;0.40;0.40;;;14.20;99.90;;;;;;5061924;28;20111;-81
2022/11/01 08:15:41;;;;;;;;;;;14.30;99.90;;;;;;5096911;27;20113;-82
2022/11/01 08:18:07;;;;;;;0.40;0.40;;;14.30;99.90;;;;;;5067429;28;19924;-78
2022/11/01 08:20:33;;;;;;;0.60;0.47;;;14.30;99.90;;;;;;5069579;28;20046;-77
2022/11/01 08:22:59;;;;;;;0.30;0.30;;;14.30;99.90;;;;;;5080534;28;20146;-78
2022/11/01 08:25:25;;;;;;;0.40;0.40;;;14.30;99.90;;;;;;5079698;28;20126;-80
2022/11/01 08:27:50;;;;;;;;;;;14.30;99.90;;;;;;5061955;28;20477;-81
2022/11/01 08:30:18;;;;;;;0.28;0.28;;;14.70;99.90;;;;;;5104441;28;19931;-81
2022/11/01 08:32:44;;;;;;;0.60;0.60;;;14.30;99.90;;;;;;5113721;27;20130;-83
2022/11/01 08:35:13;;;;;;;0.40;0.40;;;14.50;99.90;;;;;;5084486;28;20031;-82
2022/11/01 08:37:52;;;;;;;0.30;0.30;;;14.50;99.90;;;;;;5079875;28;20474;-84
2022/11/01 08:40:19;;;;;;;0.35;0.35;;;14.50;99.90;;;;;;5081021;28;20027;-82
2022/11/01 08:42:44;;;;;;;0.30;0.30;;;14.60;99.90;;;;;;5067706;28;20454;-84
2022/11/01 08:45:11;;;;;;;0.60;0.60;;;14.50;99.90;;;;;;5068988;28;20044;-83
2022/11/01 08:47:40;;;;;;;0.20;0.20;;;14.50;99.90;;;;;;5076617;28;20056;-81
2022/11/01 08:50:08;;;;;;;0.30;0.30;;;14.40;99.90;;;;;;5066819;28;20093;-81
2022/11/01 08:52:33;;;;;;;0.50;0.50;;;14.40;99.90;;;;;;5077465;28;20040;-82
2022/11/01 08:55:01;;;;;;;0.47;0.47;;;14.40;99.90;;;;;;5063913;28;20055;-80
2022/11/01 08:57:30;;;;;;;0.40;0.40;;;14.30;99.90;;;;;;5094731;27;20036;-74
2022/11/01 08:59:55;;;;;;;0.40;0.40;;;14.30;99.90;;;;;;5077330;28;20039;-77
2022/11/01 09:02:21;;;;;;;0.55;0.55;;;14.20;99.90;;;;;;5080125;28;20040;-77
2022/11/01 09:04:47;;;;;;;0.73;0.68;;;14.30;99.90;;;;;;5062183;28;20072;-77
2022/11/01 09:07:13;;;;;;;11.90;1.38;;;14.30;99.90;;;;;;5067962;28;20506;-77
2022/11/01 09:09:38;;;;;;;0.30;0.30;;;14.30;99.90;;;;;;5064268;28;20052;-78
2022/11/01 09:12:05;;;;;;;0.30;0.30;;;14.30;99.90;;;;;;5067269;28;20600;-77
2022/11/01 09:14:31;;;;;;;0.30;0.30;;;14.30;99.90;;;;;;5062917;28;20477;-77
2022/11/01 09:16:57;;;;;;;4.55;0.77;;;14.40;99.90;;;;;;5076031;28;20043;-78
2022/11/01 09:19:22;;;;;;;0.60;0.60;;;14.50;99.90;;;;;;5078039;28;20067;-78
2022/11/01 09:21:48;;;;;;;0.68;0.68;;;14.50;99.90;;;;;;5079185;28;20053;-77
2022/11/01 09:24:15;;;;;;;0.60;0.45;;;14.60;99.90;;;;;;5084782;28;20044;-77
2022/11/01 09:26:41;;;;;;;0.98;0.93;;;14.70;99.90;;;;;;5082926;28;20376;-78
2022/11/01 09:29:07;;;;;;;0.40;0.40;;;14.80;99.90;;;;;;5083998;28;20160;-76
2022/11/01 09:31:33;;;;;;;0.47;0.47;;;14.90;99.90;;;;;;5060557;28;20051;-78
2022/11/01 09:33:59;;;;;;;;;;;15.00;99.90;;;;;;5078433;28;21826;-78
2022/11/01 09:36:27;;;;;;;0.30;0.30;;;15.00;99.90;;;;;;5080009;28;19934;-79
2022/11/01 09:38:55;;;;;;;0.50;0.50;;;15.10;99.90;;;;;;5071891;28;20047;-77
2022/11/01 09:41:30;;;;;;;0.55;0.55;;;15.10;99.90;;;;;;5071195;28;20371;-79
2022/11/01 09:43:58;;;;;;;0.30;0.30;;;15.20;99.90;;;;;;5085924;28;20051;-78
2022/11/01 09:46:30;;;;;;;0.65;0.65;;;15.20;99.90;;;;;;5081014;28;20076;-78
2022/11/01 09:48:59;;;;;;;0.25;0.25;;;15.20;99.90;;;;;;5109192;27;20963;-78
2022/11/01 09:51:25;;;;;;;0.50;0.50;;;15.20;99.90;;;;;;5083528;28;20130;-76
2022/11/01 09:53:56;;;;;;;1.15;1.15;;;15.30;99.90;;;;;;5095942;27;20968;-78
2022/11/01 09:56:27;;;;;;;0.47;0.47;;;15.30;99.90;;;;;;5112665;27;20048;-78
2022/11/01 09:59:11;;;;;;;1.60;1.50;;;15.30;99.90;;;;;;5079820;28;20051;-78
2022/11/01 10:01:41;;;;;;;2.10;0.65;;;15.30;99.90;;;;;;5079631;28;20456;-79
2022/11/01 10:04:22;;;;;;;0.32;0.32;;;15.30;99.90;;;;;;5077145;28;20032;-79
2022/11/01 10:06:59;;;;;;;0.20;0.20;;;15.30;99.90;;;;;;5100536;28;20040;-78
2022/11/01 10:10:07;;;;;;;0.30;0.30;;;15.20;99.90;;;;;;5084209;28;20040;-80
2022/11/01 10:13:11;;;;;;;0.40;0.40;;;15.20;99.90;;;;;;5068209;28;20515;-78
2022/11/01 10:15:51;;;;;;;0.20;0.20;;;15.20;99.90;;;;;;5089113;28;20054;-78
2022/11/01 10:18:28;;;;;;;2.55;0.40;;;15.10;99.90;;;;;;5065422;28;20043;-76
2022/11/01 10:21:04;;;;;;;0.38;0.38;;;15.20;99.90;;;;;;5079231;28;20129;-77
2022/11/01 10:23:49;;;;;;;0.70;0.70;;;15.30;99.90;;;;;;5098629;28;20079;-77
2022/11/01 10:26:23;;;;;;;0.40;0.40;;;15.40;99.90;;;;;;5075724;28;20051;-77
2022/11/01 10:28:55;;;;;;;0.43;0.43;;;15.60;99.90;;;;;;5113052;27;20051;-80
2022/11/01 10:31:25;;;;;;;1.10;1.10;;;15.50;99.90;;;;;;5065793;28;20035;-80
2022/11/01 10:34:15;;;;;;;0.25;0.25;;;15.50;99.90;;;;;;5078182;28;20044;-78
2022/11/01 10:36:43;;;;;;;0.30;0.30;;;15.60;99.90;;;;;;5077105;28;20083;-78
2022/11/01 10:39:20;;;;;;;0.20;0.20;;;15.60;99.90;;;;;;5075015;28;20032;-79
2022/11/01 10:41:52;;;;;;;0.40;0.40;;;15.60;99.90;;;;;;5077320;28;20123;-77
2022/11/01 10:44:34;;;;;;;0.38;0.38;;;15.60;99.90;;;;;;5077260;28;20497;-79
2022/11/01 10:47:05;;;;;;;0.40;0.40;;;15.50;99.90;;;;;;5076192;28;20687;-77
2022/11/01 10:49:38;;;;;;;0.73;0.73;;;15.40;99.90;;;;;;5078925;28;20044;-78
2022/11/01 10:52:10;;;;;;;0.55;0.55;;;15.30;99.90;;;;;;5066067;28;20067;-78
2022/11/01 10:54:40;;;;;;;1.95;1.40;;;15.20;99.90;;;;;;5079385;28;20055;-78
2022/11/01 10:57:19;;;;;;;0.77;0.77;;;15.20;99.90;;;;;;5068302;28;20040;-79
2022/11/01 10:59:46;;;;;;;0.40;0.40;;;15.20;99.90;;;;;;5077212;28;20477;-77
2022/11/01 11:02:33;;;;;;;0.30;0.30;;;15.30;99.90;;;;;;5080821;28;20058;-78
2022/11/01 11:04:59;;;;;;;0.38;0.38;;;15.30;99.90;;;;;;5084050;28;20044;-79
2022/11/01 11:07:28;;;;;;;0.20;0.20;;;15.30;99.90;;;;;;5078275;28;20032;-78
2022/11/01 11:09:54;;;;;;;0.30;0.30;;;15.30;99.90;;;;;;5101066;28;20044;-78
2022/11/01 11:12:22;;;;;;;0.50;0.50;;;15.20;99.90;;;;;;5110418;28;20040;-79
2022/11/01 11:14:52;;;;;;;0.30;0.30;;;15.10;99.90;;;;;;5067313;28;20050;-78
2022/11/01 11:17:44;;;;;;;0.30;0.30;;;15.00;99.90;;;;;;5084617;28;20058;-77
2022/11/01 11:20:12;;;;;;;0.88;0.88;;;15.00;99.90;;;;;;5082250;28;20051;-79
2022/11/01 11:22:41;;;;;;;0.22;0.22;;;15.10;99.90;;;;;;5116979;27;20512;-79
2022/11/01 11:25:15;;;;;;;0.40;0.40;;;15.10;99.90;;;;;;5086105;28;20043;-80
2022/11/01 11:27:46;;;;;;;0.20;0.20;;;15.10;99.90;;;;;;5084090;28;20054;-78
2022/11/01 11:30:24;;;;;;;0.52;0.52;;;15.20;99.90;;;;;;5112227;27;20111;-79
2022/11/01 11:32:50;;;;;;;0.30;0.30;;;15.20;99.90;;;;;;5099102;28;20036;-79
2022/11/01 11:35:18;;;;;;;1.00;1.00;;;15.20;99.90;;;;;;5075984;28;20035;-78
2022/11/01 11:38:14;;;;;;;1.25;1.15;;;15.20;99.90;;;;;;5120282;27;20043;-79
2022/11/01 11:40:40;;;;;;;0.35;0.35;;;15.20;99.90;;;;;;5082911;28;20599;-79
2022/11/01 11:43:29;;;;;;;0.85;0.85;;;15.30;99.90;;;;;;5082240;28;20127;-78
2022/11/01 11:46:19;;;;;;;0.30;0.30;;;15.40;99.90;;;;;;5102769;27;20051;-78
2022/11/01 11:48:51;;;;;;;1.00;0.57;;;15.40;99.90;;;;;;5093383;28;20040;-78
2022/11/01 11:51:21;;;;;;;0.55;0.55;;;15.50;99.90;;;;;;5105072;28;20739;-79
2022/11/01 11:54:11;;;;;;;2.17;1.20;;;15.60;99.90;;;;;;5088161;27;20120;-77
2022/11/01 11:56:37;;;;;;;1.02;0.73;;;15.60;99.90;;;;;;5082954;28;20046;-77
2022/11/01 11:59:12;;;;;;;0.65;0.65;;;15.50;99.90;;;;;;5085764;28;20047;-78
2022/11/01 12:01:38;;;;;;;0.30;0.30;;;15.50;99.90;;;;;;5065048;28;20040;-77
2022/11/01 12:04:08;;;;;;;0.40;0.40;;;15.50;99.90;;;;;;5072858;28;20039;-78
2022/11/01 12:06:42;;;;;;;0.30;0.30;;;15.50;99.90;;;;;;5087299;28;20395;-75
2022/11/01 12:09:56;;;;;;;0.40;0.40;;;15.60;99.90;;;;;;5081177;28;20078;-80
2022/11/01 12:12:27;;;;;;;0.30;0.30;;;15.80;99.90;;;;;;5086371;28;20054;-80
2022/11/01 12:14:54;;;;;;;0.30;0.30;;;15.90;99.90;;;;;;5105473;28;20493;-78
2022/11/01 12:17:33;;;;;;;0.30;0.30;;;16.00;99.90;;;;;;5106143;28;20039;-78
2022/11/01 12:20:14;;;;;;;0.40;0.40;;;16.00;99.90;;;;;;5090128;28;20075;-79
2022/11/01 12:22:47;;;;;;;0.40;0.40;;;16.00;99.90;;;;;;5088866;28;20075;-81
2022/11/01 12:25:20;;;;;;;0.50;0.50;;;16.00;99.90;;;;;;5061149;28;20096;-77
2022/11/01 12:27:59;;;;;;;0.45;0.45;;;15.90;99.90;;;;;;5081205;28;20088;-80
2022/11/01 12:30:28;;;;;;;0.30;0.30;;;16.00;99.90;;;;;;5098126;28;20047;-78
2022/11/01 12:33:01;;;;;;;0.65;0.40;;;16.10;99.90;;;;;;5087640;28;20055;-77
2022/11/01 12:35:46;;;;;;;0.30;0.30;;;16.20;99.90;;;;;;5113568;28;20048;-78
2022/11/01 12:38:47;;;;;;;0.43;0.43;;;16.30;99.90;;;;;;5080879;28;20032;-78
2022/11/01 12:41:25;;;;;;;0.40;0.40;;;16.20;99.90;;;;;;5041331;28;20144;-78
2022/11/01 12:44:06;;;;;;;0.30;0.30;;;16.20;99.90;;;;;;5079821;28;20044;-77
2022/11/01 12:46:54;;;;;;;0.50;0.50;;;16.10;99.90;;;;;;5061757;28;20040;-78
2022/11/01 12:49:29;;;;;;;0.40;0.40;;;16.20;99.90;;;;;;5075508;28;20048;-77
2022/11/01 12:52:09;;;;;;;0.40;0.40;;;16.20;99.90;;;;;;5075664;28;20131;-78
2022/11/01 12:54:53;;;;;;;2.67;0.45;;;16.20;99.90;;;;;;5077990;28;20090;-79
2022/11/01 12:57:18;;;;;;;0.30;0.30;;;16.20;99.90;;;;;;5100016;28;20101;-78
2022/11/01 12:59:46;;;;;;;0.68;0.68;;;16.20;99.90;;;;;;5062423;28;20035;-77
2022/11/01 13:02:34;;;;;;;0.20;0.20;;;16.30;99.90;;;;;;5082004;28;20669;-80
2022/11/01 13:05:10;;;;;;;0.70;0.70;;;16.50;99.90;;;;;;5078622;27;20120;-80
2022/11/01 13:08:11;;;;;;;1.75;1.65;;;16.50;99.90;;;;;;5088119;27;20128;-78
2022/11/01 13:10:42;;;;;;;0.63;0.63;;;16.60;99.90;;;;;;5097910;28;20126;-76
2022/11/01 13:13:42;;;;;;;0.30;0.30;;;16.60;99.90;;;;;;5076111;28;20051;-75
2022/11/01 13:16:15;;;;;;;0.70;0.70;;;16.60;99.90;;;;;;5103532;28;20047;-78
2022/11/01 13:18:46;;;;;;;1.00;1.00;;;16.70;99.90;;;;;;5083450;28;20082;-77
2022/11/01 13:21:33;;;;;;;0.25;0.25;;;16.70;99.90;;;;;;5083696;28;20128;-77
2022/11/01 13:24:36;;;;;;;0.30;0.30;;;16.80;99.90;;;;;;5112049;27;20392;-77
2022/11/01 13:27:10;;;;;;;0.25;0.25;;;16.90;99.90;;;;;;5078410;28;20097;-76
2022/11/01 13:29:50;;;;;;;0.30;0.30;;;16.90;99.90;;;;;;5083321;28;20044;-77
2022/11/01 13:32:29;;;;;;;0.63;0.40;;;17.00;99.90;;;;;;5074217;28;20096;-78
2022/11/01 13:35:22;;;;;;;0.40;0.40;;;17.20;99.90;;;;;;5117976;28;20054;-76
2022/11/01 13:38:13;;;;;;;0.80;0.80;;;17.30;99.90;;;;;;5107554;28;20394;-77
2022/11/01 13:40:50;;;;;;;0.40;0.40;;;17.40;99.90;;;;;;5112613;27;20464;-77
2022/11/01 13:43:21;;;;;;;0.20;0.20;;;17.60;99.90;;;;;;5077367;28;20035;-78
2022/11/01 13:46:17;;;;;;;0.30;0.30;;;17.70;99.90;;;;;;5076891;28;20128;-78
2022/11/01 13:48:49;;;;;;;0.30;0.30;;;18.00;99.90;;;;;;5083430;28;20067;-77
2022/11/01 13:51:56;;;;;;;0.32;0.32;;;18.00;99.90;;;;;;5091712;28;20282;-76
2022/11/01 13:54:47;;;;;;;0.40;0.40;;;18.10;99.90;;;;;;5093031;28;20102;-79
2022/11/01 13:57:15;;;;;;;1.65;0.55;;;18.10;99.90;;;;;;5090559;28;20052;-78
2022/11/01 13:59:43;;;;;;;1.27;1.20;;;18.10;99.90;;;;;;5081680;28;20044;-77